Time;durP1;ratioP1;P1;durP2;ratioP2;P2;SDS_P1;SDS_P2;PMS_P1;PMS_P2;Temp;Humidity;BMP_temperature;BMP_pressure;BME280_temperature;BME280_humidity;BME280_pressure;Samples;Min_cycle;Max_cycle;Signal;HPM_P1;HPM_P2
2022/10/01 00:02:12;;;;;;;1.25;0.80;;;;;;;;;;5031351;28;20045;-74
2022/10/01 00:04:40;;;;;;;3.22;1.10;;;;;;;;;;5029583;28;20052;-75
2022/10/01 00:07:13;;;;;;;1.05;0.95;;;;;;;;;;5030403;28;20053;-75
2022/10/01 00:09:42;;;;;;;1.67;1.10;;;;;;;;;;5027468;28;20129;-74
2022/10/01 00:12:14;;;;;;;1.05;0.80;;;;;;;;;;5031359;28;20096;-76
2022/10/01 00:14:43;;;;;;;2.20;1.00;;;;;;;;;;5030121;28;20560;-75
2022/10/01 00:17:12;;;;;;;1.85;1.08;;;;;;;;;;5031238;28;20136;-74
2022/10/01 00:19:40;;;;;;;1.45;0.70;;;;;;;;;;5023276;28;20368;-75
2022/10/01 00:22:08;;;;;;;4.03;1.38;;;;;;;;;;5031468;28;20148;-73
2022/10/01 00:24:37;;;;;;;3.28;1.38;;;;;;;;;;5020201;28;20045;-74
2022/10/01 00:27:05;;;;;;;7.13;1.60;;;;;;;;;;5028824;28;20041;-73
2022/10/01 00:29:35;;;;;;;2.00;1.33;;;;;;;;;;5028370;28;20049;-74
2022/10/01 00:32:03;;;;;;;3.35;1.83;;;;;;;;;;5025716;28;20049;-74
2022/10/01 00:34:32;;;;;;;1.15;0.90;;;;;;;;;;5029220;28;20103;-73
2022/10/01 00:37:00;;;;;;;2.92;1.92;;;;;;;;;;5007707;28;20057;-74
2022/10/01 00:39:28;;;;;;;3.80;2.45;;;;;;;;;;5009668;28;20061;-74
2022/10/01 00:41:56;;;;;;;3.13;1.48;;;;;;;;;;5003528;28;20053;-73
2022/10/01 00:44:29;;;;;;;3.13;1.60;;;;;;;;;;5011270;28;20411;-74
2022/10/01 00:47:01;;;;;;;5.25;1.85;;;;;;;;;;5011094;28;20558;-74
2022/10/01 00:49:30;;;;;;;4.88;1.95;;;;;;;;;;5007674;28;20042;-74
2022/10/01 00:52:02;;;;;;;1.35;1.02;;;;;;;;;;5010195;28;20057;-73
2022/10/01 00:54:32;;;;;;;5.28;1.65;;;;;;;;;;5009860;28;20046;-74
2022/10/01 00:57:01;;;;;;;4.53;1.75;;;;;;;;;;5011474;28;20046;-74
2022/10/01 00:59:30;;;;;;;5.72;2.35;;;;;;;;;;5009884;28;20051;-74
2022/10/01 01:02:00;;;;;;;5.22;1.42;;;;;;;;;;5004861;28;20050;-74
2022/10/01 01:04:28;;;;;;;6.10;2.38;;;;;;;;;;5007482;28;20045;-73
2022/10/01 01:06:58;;;;;;;1.52;1.38;;;;;;;;;;5023037;28;20082;-74
2022/10/01 01:09:28;;;;;;;9.00;2.42;;;;;;;;;;5015858;28;20069;-74
2022/10/01 01:12:00;;;;;;;4.13;1.50;;;;;;;;;;5024190;28;20053;-74
2022/10/01 01:14:31;;;;;;;2.20;1.40;;;;;;;;;;5024368;28;20049;-73
2022/10/01 01:17:07;;;;;;;3.63;1.67;;;;;;;;;;5023112;28;20046;-73
2022/10/01 01:19:44;;;;;;;3.80;1.80;;;;;;;;;;5029524;28;20049;-74
2022/10/01 01:22:14;;;;;;;5.20;2.15;;;;;;;;;;5023561;28;20064;-74
2022/10/01 01:24:50;;;;;;;2.88;2.03;;;;;;;;;;5015870;28;20085;-73
2022/10/01 01:27:37;;;;;;;5.60;1.67;;;;;;;;;;5026052;28;20057;-73
2022/10/01 01:30:08;;;;;;;4.50;2.10;;;;;;;;;;5022897;28;20053;-73
2022/10/01 01:32:45;;;;;;;2.75;1.58;;;;;;;;;;5024682;28;20045;-73
2022/10/01 01:35:17;;;;;;;2.55;1.83;;;;;;;;;;5014729;28;20049;-73
2022/10/01 01:37:48;;;;;;;3.50;2.22;;;;;;;;;;5005935;28;20046;-73
2022/10/01 01:40:17;;;;;;;2.95;1.50;;;;;;;;;;5008863;28;20486;-73
2022/10/01 01:42:45;;;;;;;2.13;1.27;;;;;;;;;;5010632;28;20490;-73
2022/10/01 01:45:16;;;;;;;2.47;1.50;;;;;;;;;;5009057;28;20082;-73
2022/10/01 01:47:46;;;;;;;3.67;1.40;;;;;;;;;;5009869;28;20477;-73
2022/10/01 01:50:16;;;;;;;6.78;2.13;;;;;;;;;;5008501;28;20449;-73
2022/10/01 01:52:44;;;;;;;2.55;1.42;;;;;;;;;;5015467;28;20068;-74
2022/10/01 01:55:13;;;;;;;5.13;2.53;;;;;;;;;;5009318;28;20066;-73
2022/10/01 01:57:42;;;;;;;3.58;1.60;;;;;;;;;;5002514;28;20073;-73
2022/10/01 02:00:11;;;;;;;3.85;1.33;;;;;;;;;;5009714;28;20056;-72
2022/10/01 02:02:44;;;;;;;2.10;1.33;;;;;;;;;;5010893;28;20670;-73
2022/10/01 02:05:14;;;;;;;2.80;1.63;;;;;;;;;;5018020;28;20045;-73
2022/10/01 02:07:52;;;;;;;2.92;1.92;;;;;;;;;;5026098;28;20053;-73
2022/10/01 02:10:26;;;;;;;3.38;1.77;;;;;;;;;;5026447;28;20045;-73
2022/10/01 02:13:03;;;;;;;4.82;2.58;;;;;;;;;;5037027;28;20041;-73
2022/10/01 02:15:37;;;;;;;1.70;1.58;;;;;;;;;;5018013;28;20057;-73
2022/10/01 02:18:10;;;;;;;3.22;1.90;;;;;;;;;;5030754;28;20408;-73
2022/10/01 02:20:40;;;;;;;3.17;2.67;;;;;;;;;;5028441;28;20060;-73
2022/10/01 02:23:09;;;;;;;4.18;1.60;;;;;;;;;;5029441;28;20369;-74
2022/10/01 02:25:40;;;;;;;4.38;1.60;;;;;;;;;;5032369;28;20054;-73
2022/10/01 02:28:10;;;;;;;6.25;2.25;;;;;;;;;;5037566;28;20053;-74
2022/10/01 02:30:39;;;;;;;4.78;1.02;;;;;;;;;;5035864;28;20548;-74
2022/10/01 02:33:10;;;;;;;3.90;1.70;;;;;;;;;;5027190;28;20056;-74
2022/10/01 02:35:39;;;;;;;3.53;2.08;;;;;;;;;;5034578;28;20044;-73
2022/10/01 02:38:09;;;;;;;5.00;2.78;;;;;;;;;;5025074;28;20057;-73
2022/10/01 02:40:39;;;;;;;4.80;1.83;;;;;;;;;;5028022;28;20052;-73
2022/10/01 02:43:11;;;;;;;4.72;1.02;;;;;;;;;;5031904;28;20045;-73
2022/10/01 02:45:41;;;;;;;2.35;1.17;;;;;;;;;;5027858;28;20402;-74
2022/10/01 02:48:15;;;;;;;2.30;1.77;;;;;;;;;;5031645;28;20042;-73
2022/10/01 02:50:45;;;;;;;3.42;1.90;;;;;;;;;;5033464;28;20139;-74
2022/10/01 02:53:18;;;;;;;2.75;1.65;;;;;;;;;;5029195;28;20417;-73
2022/10/01 02:55:47;;;;;;;1.10;0.90;;;;;;;;;;5030174;28;20052;-74
2022/10/01 02:58:15;;;;;;;2.83;1.48;;;;;;;;;;5032838;28;20054;-73
2022/10/01 03:00:43;;;;;;;2.88;1.90;;;;;;;;;;5030613;28;20087;-74
2022/10/01 03:03:13;;;;;;;2.72;1.52;;;;;;;;;;5025594;28;20081;-74
2022/10/01 03:05:41;;;;;;;2.03;1.58;;;;;;;;;;5032221;28;20053;-73
2022/10/01 03:08:09;;;;;;;3.45;1.67;;;;;;;;;;5023725;28;20060;-73
2022/10/01 03:10:38;;;;;;;4.47;1.70;;;;;;;;;;5032040;28;20045;-74
2022/10/01 03:13:10;;;;;;;2.92;1.55;;;;;;;;;;5034252;28;20057;-73
2022/10/01 03:15:38;;;;;;;3.25;1.67;;;;;;;;;;5021555;28;20076;-73
2022/10/01 03:18:07;;;;;;;2.42;1.50;;;;;;;;;;5026947;28;20467;-73
2022/10/01 03:20:36;;;;;;;1.45;1.00;;;;;;;;;;5014754;28;20042;-73
2022/10/01 03:23:05;;;;;;;2.97;1.30;;;;;;;;;;5010527;28;20133;-72
2022/10/01 03:25:33;;;;;;;3.55;1.40;;;;;;;;;;5023065;28;20053;-73
2022/10/01 03:28:01;;;;;;;2.45;1.83;;;;;;;;;;5041417;28;20053;-73
2022/10/01 03:30:31;;;;;;;4.30;2.30;;;;;;;;;;5030723;28;20057;-74
2022/10/01 03:32:59;;;;;;;3.70;2.15;;;;;;;;;;5026488;28;20493;-73
2022/10/01 03:35:28;;;;;;;2.53;1.33;;;;;;;;;;5026388;28;20130;-74
2022/10/01 03:37:57;;;;;;;1.35;1.25;;;;;;;;;;5008435;28;20057;-73
2022/10/01 03:40:26;;;;;;;1.88;1.33;;;;;;;;;;5009636;28;20054;-73
2022/10/01 03:42:54;;;;;;;6.50;1.20;;;;;;;;;;5007745;28;20737;-73
2022/10/01 03:45:22;;;;;;;4.13;1.92;;;;;;;;;;5011185;28;20054;-74
2022/10/01 03:47:53;;;;;;;1.92;1.13;;;;;;;;;;5019456;28;20062;-74
2022/10/01 03:50:22;;;;;;;3.45;1.45;;;;;;;;;;5011726;28;20054;-73
2022/10/01 03:52:50;;;;;;;1.90;0.80;;;;;;;;;;5016357;28;20049;-72
2022/10/01 03:55:20;;;;;;;1.98;1.45;;;;;;;;;;5007234;28;20386;-74
2022/10/01 03:57:49;;;;;;;3.28;1.17;;;;;;;;;;5012470;28;20058;-74
2022/10/01 04:00:17;;;;;;;1.50;1.38;;;;;;;;;;5007937;28;20054;-73
2022/10/01 04:02:45;;;;;;;1.85;1.00;;;;;;;;;;5012530;28;20053;-74
2022/10/01 04:05:14;;;;;;;1.45;0.93;;;;;;;;;;5025591;28;20071;-74
2022/10/01 04:07:42;;;;;;;3.00;1.33;;;;;;;;;;5028286;28;20049;-75
2022/10/01 04:10:11;;;;;;;2.28;1.67;;;;;;;;;;5027118;28;20049;-74
2022/10/01 04:12:40;;;;;;;2.97;1.20;;;;;;;;;;5030659;28;20465;-73
2022/10/01 04:15:09;;;;;;;3.53;1.38;;;;;;;;;;5026223;28;20661;-73
2022/10/01 04:17:37;;;;;;;2.58;1.42;;;;;;;;;;5038596;28;20056;-73
2022/10/01 04:20:12;;;;;;;2.67;1.30;;;;;;;;;;5032282;28;20489;-74
2022/10/01 04:22:40;;;;;;;4.35;1.25;;;;;;;;;;5034935;28;20053;-73
2022/10/01 04:25:10;;;;;;;1.38;1.23;;;;;;;;;;5033525;28;20440;-73
2022/10/01 04:27:38;;;;;;;1.35;0.98;;;;;;;;;;5030819;28;20053;-74
2022/10/01 04:30:09;;;;;;;4.90;1.48;;;;;;;;;;5035247;28;20045;-72
2022/10/01 04:32:38;;;;;;;3.63;1.63;;;;;;;;;;5027788;28;20049;-74
2022/10/01 04:35:07;;;;;;;1.42;1.23;;;;;;;;;;5034053;28;20386;-73
2022/10/01 04:37:36;;;;;;;2.38;1.77;;;;;;;;;;5026363;28;20048;-74
2022/10/01 04:40:04;;;;;;;2.50;1.02;;;;;;;;;;5031516;28;20049;-74
2022/10/01 04:42:33;;;;;;;1.55;1.05;;;;;;;;;;5031445;28;20049;-74
2022/10/01 04:45:01;;;;;;;5.15;1.10;;;;;;;;;;5020262;28;20057;-74
2022/10/01 04:47:31;;;;;;;1.77;0.95;;;;;;;;;;5026151;28;20040;-73
2022/10/01 04:50:05;;;;;;;6.50;1.55;;;;;;;;;;5027210;28;20057;-74
2022/10/01 04:52:33;;;;;;;1.08;0.90;;;;;;;;;;5030552;28;20045;-74
2022/10/01 04:55:01;;;;;;;2.90;1.20;;;;;;;;;;5022678;28;20521;-73
2022/10/01 04:57:29;;;;;;;2.50;1.58;;;;;;;;;;5029634;28;20056;-72
2022/10/01 04:59:58;;;;;;;1.88;1.10;;;;;;;;;;5029619;28;20045;-73
2022/10/01 05:02:26;;;;;;;1.60;1.38;;;;;;;;;;5028924;28;20053;-73
2022/10/01 05:04:55;;;;;;;1.25;0.98;;;;;;;;;;5029604;28;20126;-74
2022/10/01 05:07:24;;;;;;;1.52;1.08;;;;;;;;;;5026728;28;20072;-74
2022/10/01 05:09:52;;;;;;;2.47;1.55;;;;;;;;;;5029083;28;20060;-73
2022/10/01 05:12:21;;;;;;;3.15;1.80;;;;;;;;;;5034042;28;20053;-73
2022/10/01 05:14:52;;;;;;;2.17;1.25;;;;;;;;;;5029954;28;20045;-74
2022/10/01 05:17:20;;;;;;;1.13;0.93;;;;;;;;;;5026027;28;20049;-73
2022/10/01 05:19:48;;;;;;;0.82;0.60;;;;;;;;;;5027565;28;20042;-74
2022/10/01 05:22:18;;;;;;;2.38;1.35;;;;;;;;;;5038408;28;20048;-73
2022/10/01 05:24:47;;;;;;;2.13;1.10;;;;;;;;;;5033522;28;20053;-74
2022/10/01 05:27:15;;;;;;;2.72;1.42;;;;;;;;;;5021536;28;20045;-74
2022/10/01 05:29:44;;;;;;;0.47;0.43;;;;;;;;;;5022657;28;20047;-73
2022/10/01 05:32:13;;;;;;;2.35;1.10;;;;;;;;;;5027629;28;20053;-73
2022/10/01 05:34:42;;;;;;;1.77;1.48;;;;;;;;;;5023416;28;20395;-74
2022/10/01 05:37:10;;;;;;;1.17;0.73;;;;;;;;;;5014113;28;20572;-74
2022/10/01 05:39:40;;;;;;;2.25;1.17;;;;;;;;;;5007164;28;20056;-74
2022/10/01 05:42:08;;;;;;;2.55;1.17;;;;;;;;;;5002593;28;20042;-74
2022/10/01 05:44:38;;;;;;;0.75;0.47;;;;;;;;;;5012445;28;20049;-73
2022/10/01 05:47:07;;;;;;;1.48;0.90;;;;;;;;;;5000758;28;20045;-74
2022/10/01 05:49:35;;;;;;;2.88;0.88;;;;;;;;;;5017685;28;20050;-73
2022/10/01 05:52:04;;;;;;;1.80;1.02;;;;;;;;;;5012148;28;20398;-74
2022/10/01 05:54:33;;;;;;;1.25;1.15;;;;;;;;;;5008873;28;20516;-74
2022/10/01 05:57:04;;;;;;;1.83;0.90;;;;;;;;;;5011506;28;20054;-74
2022/10/01 05:59:32;;;;;;;0.75;0.68;;;;;;;;;;5008276;28;20496;-74
2022/10/01 06:02:00;;;;;;;1.35;1.13;;;;;;;;;;5011983;28;20045;-73
2022/10/01 06:04:29;;;;;;;1.65;0.77;;;;;;;;;;5000765;28;20076;-73
2022/10/01 06:06:57;;;;;;;1.50;1.05;;;;;;;;;;4998318;28;20050;-74
2022/10/01 06:09:26;;;;;;;2.60;1.67;;;;;;;;;;4998610;28;20049;-74
2022/10/01 06:11:54;;;;;;;2.00;0.90;;;;;;;;;;5002686;28;20058;-73
2022/10/01 06:14:24;;;;;;;0.85;0.85;;;;;;;;;;5002191;28;20053;-73
2022/10/01 06:16:54;;;;;;;1.67;0.85;;;;;;;;;;5010349;28;20081;-74
2022/10/01 06:19:22;;;;;;;0.63;0.55;;;;;;;;;;5003275;28;20100;-73
2022/10/01 06:21:52;;;;;;;2.45;1.15;;;;;;;;;;4997022;28;20050;-73
2022/10/01 06:24:20;;;;;;;2.47;0.88;;;;;;;;;;5007313;28;20057;-73
2022/10/01 06:26:48;;;;;;;4.72;1.23;;;;;;;;;;5003993;28;20059;-73
2022/10/01 06:29:16;;;;;;;3.08;1.45;;;;;;;;;;5001576;28;20050;-74
2022/10/01 06:31:46;;;;;;;1.90;1.00;;;;;;;;;;5008065;28;20053;-74
2022/10/01 06:34:14;;;;;;;3.28;1.60;;;;;;;;;;5004474;28;20586;-73
2022/10/01 06:36:43;;;;;;;2.33;0.80;;;;;;;;;;5023639;28;20064;-74
2022/10/01 06:39:11;;;;;;;1.15;1.05;;;;;;;;;;5021986;28;20053;-74
2022/10/01 06:41:42;;;;;;;3.03;1.02;;;;;;;;;;5022444;28;20042;-74
2022/10/01 06:44:10;;;;;;;1.67;1.58;;;;;;;;;;5020843;28;20076;-72
2022/10/01 06:46:38;;;;;;;2.75;1.20;;;;;;;;;;5021260;28;20511;-74
2022/10/01 06:49:08;;;;;;;3.13;0.90;;;;;;;;;;5021876;28;20049;-74
2022/10/01 06:54:23;;;;;;;2.15;1.23;;;;;;;;;;5020705;28;20057;-74
2022/10/01 06:56:51;;;;;;;1.83;0.93;;;;;;;;;;5024954;28;20064;-74
2022/10/01 06:59:19;;;;;;;2.95;1.48;;;;;;;;;;5016831;28;20057;-74
2022/10/01 07:01:49;;;;;;;1.27;1.00;;;;;;;;;;5026322;28;20045;-74
2022/10/01 07:04:24;;;;;;;1.48;1.33;;;;;;;;;;5020838;28;20111;-74
2022/10/01 07:06:54;;;;;;;3.65;1.17;;;;;;;;;;5025805;28;20042;-74
2022/10/01 07:09:24;;;;;;;4.20;1.27;;;;;;;;;;5022263;28;20037;-74
2022/10/01 07:11:53;;;;;;;2.28;1.05;;;;;;;;;;5028058;28;20128;-74
2022/10/01 07:14:21;;;;;;;1.58;0.95;;;;;;;;;;5027796;28;20451;-73
2022/10/01 07:16:50;;;;;;;3.75;1.73;;;;;;;;;;5026988;28;20079;-74
2022/10/01 07:19:18;;;;;;;2.88;1.85;;;;;;;;;;5020139;28;20088;-75
2022/10/01 07:21:49;;;;;;;1.55;1.00;;;;;;;;;;5028135;28;20045;-74
2022/10/01 07:24:18;;;;;;;3.05;1.55;;;;;;;;;;5030660;28;20049;-73
2022/10/01 07:26:49;;;;;;;1.55;1.17;;;;;;;;;;5010540;28;20473;-73
2022/10/01 07:29:18;;;;;;;3.35;0.95;;;;;;;;;;5006005;28;20426;-73
2022/10/01 07:31:46;;;;;;;1.42;0.95;;;;;;;;;;5008814;28;20060;-73
2022/10/01 07:34:14;;;;;;;1.65;0.93;;;;;;;;;;5004593;28;20249;-75
2022/10/01 07:36:44;;;;;;;4.75;1.63;;;;;;;;;;5011948;28;20451;-76
2022/10/01 07:39:13;;;;;;;2.25;1.10;;;;;;;;;;5003825;28;20362;-74
2022/10/01 07:41:42;;;;;;;1.00;0.77;;;;;;;;;;5004481;28;20054;-76
2022/10/01 07:44:11;;;;;;;1.08;0.73;;;;;;;;;;5001184;28;20089;-73
2022/10/01 07:46:40;;;;;;;2.03;0.85;;;;;;;;;;5022991;28;20053;-75
2022/10/01 07:49:08;;;;;;;4.15;0.93;;;;;;;;;;5031283;28;20493;-74
2022/10/01 07:51:37;;;;;;;1.67;1.08;;;;;;;;;;5031441;28;20045;-74
2022/10/01 07:54:06;;;;;;;0.57;0.47;;;;;;;;;;5024118;28;20045;-75
2022/10/01 07:56:35;;;;;;;1.27;0.57;;;;;;;;;;5019393;28;20076;-75
2022/10/01 07:59:04;;;;;;;0.50;0.50;;;;;;;;;;5026673;28;20050;-74
2022/10/01 08:01:32;;;;;;;1.92;0.60;;;;;;;;;;5030742;28;20049;-75
2022/10/01 08:05:16;;;;;;;1.02;0.57;;;;;;;;;;5027242;28;20144;-75
2022/10/01 08:06:51;;;;;;;0.88;0.32;;;;;;;;;;5021661;28;20092;-75
2022/10/01 08:09:19;;;;;;;1.80;0.60;;;;;;;;;;5030864;28;20056;-76
2022/10/01 08:11:49;;;;;;;0.20;0.17;;;;;;;;;;5026113;28;20053;-75
2022/10/01 08:14:19;;;;;;;1.52;0.77;;;;;;;;;;5028543;28;20049;-75
2022/10/01 08:16:47;;;;;;;0.30;0.30;;;;;;;;;;5024712;28;20065;-75
2022/10/01 08:19:16;;;;;;;5.38;1.65;;;;;;;;;;5030935;28;20567;-74
2022/10/01 08:21:44;;;;;;;1.98;0.70;;;;;;;;;;5027840;28;20364;-73
2022/10/01 08:24:13;;;;;;;6.93;0.70;;;;;;;;;;5026294;28;20076;-77
2022/10/01 08:26:41;;;;;;;0.90;0.65;;;;;;;;;;5008777;28;20905;-78
2022/10/01 08:29:10;;;;;;;0.50;0.40;;;;;;;;;;5005697;28;20131;-78
2022/10/01 08:31:44;;;;;;;1.45;1.35;;;;;;;;;;5002847;28;20054;-77
2022/10/01 08:34:12;;;;;;;0.43;0.43;;;;;;;;;;5007487;28;20058;-79
2022/10/01 08:36:41;;;;;;;0.88;0.52;;;;;;;;;;5009412;28;20054;-74
2022/10/01 08:39:09;;;;;;;1.15;0.50;;;;;;;;;;5004493;28;20057;-78
2022/10/01 08:41:43;;;;;;;0.60;0.28;;;;;;;;;;5013639;28;20045;-77
2022/10/01 08:44:19;;;;;;;0.28;0.25;;;;;;;;;;5001831;28;20050;-76
2022/10/01 08:46:48;;;;;;;0.85;0.65;;;;;;;;;;5007023;28;20498;-77
2022/10/01 08:49:19;;;;;;;1.60;0.47;;;;;;;;;;5005081;28;20049;-75
2022/10/01 08:51:49;;;;;;;1.05;0.95;;;;;;;;;;5006590;28;20306;-76
2022/10/01 08:54:25;;;;;;;0.40;0.40;;;;;;;;;;5005203;28;20562;-75
2022/10/01 08:56:54;;;;;;;0.88;0.60;;;;;;;;;;5004381;28;20748;-79
2022/10/01 08:59:30;;;;;;;2.05;1.00;;;;;;;;;;5001843;28;20787;-79
2022/10/01 09:01:58;;;;;;;0.40;0.20;;;;;;;;;;4998586;28;20410;-77
2022/10/01 09:04:27;;;;;;;0.32;0.20;;;;;;;;;;4994818;28;20175;-82
2022/10/01 09:07:00;;;;;;;0.40;0.40;;;;;;;;;;4999664;28;20054;-78
2022/10/01 09:09:35;;;;;;;0.57;0.47;;;;;;;;;;5001708;28;20049;-78
2022/10/01 09:12:11;;;;;;;1.48;0.95;;;;;;;;;;5005010;28;20164;-77
2022/10/01 09:14:48;;;;;;;0.30;0.10;;;;;;;;;;5005401;28;20052;-78
2022/10/01 09:17:19;;;;;;;0.35;0.22;;;;;;;;;;5006625;28;20437;-77
2022/10/01 09:19:55;;;;;;;0.52;0.30;;;;;;;;;;5009296;28;20424;-78
2022/10/01 09:22:28;;;;;;;0.32;0.20;;;;;;;;;;5008604;28;20052;-77
2022/10/01 09:25:05;;;;;;;0.45;0.35;;;;;;;;;;5007314;28;21427;-78
2022/10/01 09:27:34;;;;;;;3.72;0.30;;;;;;;;;;4998930;28;20057;-78
2022/10/01 09:30:05;;;;;;;0.40;0.40;;;;;;;;;;5002061;28;20049;-78
2022/10/01 09:32:36;;;;;;;0.98;0.35;;;;;;;;;;5016332;28;20137;-78
2022/10/01 09:35:13;;;;;;;0.20;0.20;;;;;;;;;;4996836;28;20070;-77
2022/10/01 09:37:43;;;;;;;0.22;0.22;;;;;;;;;;5000595;28;20057;-79
2022/10/01 09:40:15;;;;;;;0.30;0.30;;;;;;;;;;4994754;28;20050;-78
2022/10/01 09:42:43;;;;;;;0.40;0.20;;;;;;;;;;5001609;28;20050;-78
2022/10/01 09:45:14;;;;;;;0.45;0.30;;;;;;;;;;5003904;28;20056;-77
2022/10/01 09:47:44;;;;;;;1.58;0.30;;;;;;;;;;5001963;28;20053;-78
2022/10/01 09:50:15;;;;;;;0.20;0.20;;;;;;;;;;5001999;28;20046;-79
2022/10/01 09:52:46;;;;;;;2.05;0.43;;;;;;;;;;4997535;28;20287;-77
2022/10/01 09:55:23;;;;;;;0.43;0.43;;;;;;;;;;5007320;28;20045;-75
2022/10/01 09:57:54;;;;;;;0.65;0.47;;;;;;;;;;5028315;28;20060;-77
2022/10/01 10:00:25;;;;;;;2.08;0.22;;;;;;;;;;5019619;28;20049;-76
2022/10/01 10:02:54;;;;;;;0.17;0.17;;;;;;;;;;5026854;28;20819;-76
2022/10/01 10:05:24;;;;;;;0.75;0.20;;;;;;;;;;5018283;28;20144;-75
2022/10/01 10:07:53;;;;;;;0.35;0.35;;;;;;;;;;5007335;28;20049;-76
2022/10/01 10:10:24;;;;;;;0.43;0.35;;;;;;;;;;5005113;28;20053;-76
2022/10/01 10:12:56;;;;;;;0.77;0.52;;;;;;;;;;5005265;28;20077;-77
2022/10/01 10:15:26;;;;;;;0.10;0.10;;;;;;;;;;5010850;28;20058;-77
2022/10/01 10:17:55;;;;;;;3.30;0.20;;;;;;;;;;5008509;28;20046;-77
2022/10/01 10:20:31;;;;;;;1.75;0.57;;;;;;;;;;5010379;28;20052;-77
2022/10/01 10:23:09;;;;;;;0.68;0.30;;;;;;;;;;5005769;28;20479;-77
2022/10/01 10:25:37;;;;;;;0.25;0.25;;;;;;;;;;5006098;28;20042;-77
2022/10/01 10:28:18;;;;;;;0.20;0.20;;;;;;;;;;5014998;28;20053;-75
2022/10/01 10:30:48;;;;;;;0.30;0.20;;;;;;;;;;5022295;28;20485;-76
2022/10/01 10:33:17;;;;;;;0.30;0.20;;;;;;;;;;5016982;28;20060;-76
2022/10/01 10:35:45;;;;;;;1.10;0.30;;;;;;;;;;5015044;28;20070;-76
2022/10/01 10:38:19;;;;;;;0.60;0.60;;;;;;;;;;5014558;28;20068;-77
2022/10/01 10:40:47;;;;;;;1.08;0.30;;;;;;;;;;5023017;28;20056;-77
2022/10/01 10:43:19;;;;;;;1.33;0.68;;;;;;;;;;5018875;28;20064;-81
2022/10/01 10:45:53;;;;;;;0.95;0.40;;;;;;;;;;5018304;28;20041;-79
2022/10/01 10:48:23;;;;;;;0.30;0.30;;;;;;;;;;5020459;28;20056;-78
2022/10/01 10:50:58;;;;;;;0.95;0.43;;;;;;;;;;5026190;28;20049;-80
2022/10/01 10:53:28;;;;;;;0.10;0.10;;;;;;;;;;5026133;28;20058;-77
2022/10/01 10:55:59;;;;;;;0.60;0.47;;;;;;;;;;5027549;28;20045;-79
2022/10/01 10:58:28;;;;;;;6.03;1.00;;;;;;;;;;5018925;28;22892;-78
2022/10/01 11:01:00;;;;;;;0.20;0.20;;;;;;;;;;5022465;28;20160;-81
2022/10/01 11:03:30;;;;;;;0.57;0.43;;;;;;;;;;5024448;28;20045;-77
2022/10/01 11:06:01;;;;;;;0.88;0.70;;;;;;;;;;5022242;28;20053;-75
2022/10/01 11:08:30;;;;;;;0.50;0.30;;;;;;;;;;5019423;28;20136;-76
2022/10/01 11:11:04;;;;;;;0.55;0.32;;;;;;;;;;5025661;28;20041;-77
2022/10/01 11:13:45;;;;;;;0.30;0.20;;;;;;;;;;5019828;28;20054;-75
2022/10/01 11:16:24;;;;;;;0.40;0.38;;;;;;;;;;5026134;28;20041;-76
2022/10/01 11:19:00;;;;;;;1.60;0.40;;;;;;;;;;5026822;28;20290;-75
2022/10/01 11:21:46;;;;;;;1.70;0.45;;;;;;;;;;5023909;28;20053;-74
2022/10/01 11:24:33;;;;;;;1.85;0.38;;;;;;;;;;5023591;28;20049;-76
2022/10/01 11:27:05;;;;;;;1.23;1.13;;;;;;;;;;5023794;28;20525;-74
2022/10/01 11:29:38;;;;;;;0.75;0.50;;;;;;;;;;5023559;28;20049;-75
2022/10/01 11:32:18;;;;;;;1.85;0.55;;;;;;;;;;5025027;28;20050;-73
2022/10/01 11:34:57;;;;;;;0.32;0.32;;;;;;;;;;5025542;28;20060;-73
2022/10/01 11:37:37;;;;;;;1.05;0.35;;;;;;;;;;5021468;28;20046;-73
2022/10/01 11:40:18;;;;;;;1.50;0.32;;;;;;;;;;5025493;28;20136;-73
2022/10/01 11:42:49;;;;;;;0.73;0.30;;;;;;;;;;5026768;28;20050;-72
2022/10/01 11:45:20;;;;;;;0.80;0.52;;;;;;;;;;5018729;28;20386;-72
2022/10/01 11:47:52;;;;;;;0.30;0.30;;;;;;;;;;5026715;28;20119;-73
2022/10/01 11:50:24;;;;;;;0.40;0.40;;;;;;;;;;5028322;28;20396;-72
2022/10/01 11:52:55;;;;;;;0.60;0.40;;;;;;;;;;5024360;28;20049;-73
2022/10/01 12:01:04;;;;;;;0.43;0.38;;;;;;;;;;5024057;28;20049;-73
2022/10/01 12:03:37;;;;;;;1.10;0.82;;;;;;;;;;5026332;28;20068;-73
2022/10/01 12:06:08;;;;;;;0.57;0.50;;;;;;;;;;5011503;28;20058;-73
2022/10/01 12:08:37;;;;;;;0.65;0.45;;;;;;;;;;5006556;28;20516;-74
2022/10/01 12:11:10;;;;;;;0.20;0.20;;;;;;;;;;5004881;28;20054;-74
2022/10/01 12:13:42;;;;;;;0.47;0.30;;;;;;;;;;4998616;28;20053;-73
2022/10/01 12:16:13;;;;;;;0.52;0.43;;;;;;;;;;5000432;28;20052;-73
2022/10/01 12:18:48;;;;;;;0.55;0.55;;;;;;;;;;5005456;28;20061;-73
2022/10/01 12:21:16;;;;;;;;;;;;;;;;;;5006681;28;20053;-73
2022/10/01 12:23:49;;;;;;;0.60;0.55;;;;;;;;;;5003112;28;19932;-75
2022/10/01 12:26:21;;;;;;;0.60;0.60;;;;;;;;;;5005251;28;20050;-73
2022/10/01 12:28:53;;;;;;;0.95;0.40;;;;;;;;;;5005198;28;20509;-73
2022/10/01 12:31:30;;;;;;;0.43;0.32;;;;;;;;;;5003134;28;20057;-73
2022/10/01 12:34:08;;;;;;;1.27;0.65;;;;;;;;;;5005142;28;20089;-73
2022/10/01 12:36:43;;;;;;;0.80;0.70;;;;;;;;;;5006423;28;20409;-73
2022/10/01 12:39:20;;;;;;;3.78;0.77;;;;;;;;;;5010085;28;20558;-75
2022/10/01 12:41:56;;;;;;;0.43;0.43;;;;;;;;;;5007923;28;20081;-76
2022/10/01 12:44:36;;;;;;;1.67;0.73;;;;;;;;;;5002773;28;20451;-75
2022/10/01 12:47:11;;;;;;;0.40;0.40;;;;;;;;;;5005202;28;20084;-73
2022/10/01 12:49:44;;;;;;;1.15;0.93;;;;;;;;;;5001311;28;20136;-73
2022/10/01 12:52:17;;;;;;;1.77;0.85;;;;;;;;;;5007672;28;20152;-74
2022/10/01 12:54:51;;;;;;;0.50;0.38;;;;;;;;;;5003382;28;20054;-73
2022/10/01 12:57:27;;;;;;;0.27;0.27;;;;;;;;;;5005622;28;20064;-74
2022/10/01 13:00:02;;;;;;;1.17;0.40;;;;;;;;;;5004842;28;20050;-73
2022/10/01 13:02:38;;;;;;;0.55;0.50;;;;;;;;;;5008451;28;20054;-73
2022/10/01 13:05:18;;;;;;;0.52;0.47;;;;;;;;;;5008166;28;20116;-76
2022/10/01 13:07:57;;;;;;;0.40;0.40;;;;;;;;;;4996796;28;20411;-76
2022/10/01 13:10:31;;;;;;;0.20;0.20;;;;;;;;;;5003710;28;20046;-77
2022/10/01 13:13:03;;;;;;;0.10;0.10;;;;;;;;;;4999773;28;20064;-73
2022/10/01 13:15:33;;;;;;;0.32;0.32;;;;;;;;;;5011674;28;20053;-74
2022/10/01 13:18:06;;;;;;;0.90;0.60;;;;;;;;;;5025100;28;20392;-75
2022/10/01 13:20:39;;;;;;;0.35;0.35;;;;;;;;;;5024120;28;20120;-75
2022/10/01 13:23:12;;;;;;;1.55;0.50;;;;;;;;;;5025129;28;20053;-74
2022/10/01 13:25:44;;;;;;;1.35;0.55;;;;;;;;;;5019295;28;20052;-77
2022/10/01 13:28:17;;;;;;;3.60;0.40;;;;;;;;;;5019977;28;20061;-75
2022/10/01 13:30:51;;;;;;;0.22;0.10;;;;;;;;;;5027726;28;20507;-75
2022/10/01 13:33:25;;;;;;;0.40;0.35;;;;;;;;;;5024077;28;20080;-74
2022/10/01 13:35:56;;;;;;;0.82;0.45;;;;;;;;;;5024503;28;20168;-73
2022/10/01 13:38:29;;;;;;;1.13;0.40;;;;;;;;;;5021813;28;20501;-76
2022/10/01 13:40:58;;;;;;;0.80;0.32;;;;;;;;;;5029550;28;20049;-74
2022/10/01 13:43:27;;;;;;;0.20;0.20;;;;;;;;;;5028309;28;20048;-77
2022/10/01 13:45:57;;;;;;;0.22;0.22;;;;;;;;;;5026490;28;20501;-77
2022/10/01 13:48:28;;;;;;;0.22;0.22;;;;;;;;;;5024092;28;20505;-75
2022/10/01 13:51:01;;;;;;;0.10;0.10;;;;;;;;;;5014782;28;20054;-74
2022/10/01 13:53:31;;;;;;;0.20;0.20;;;;;;;;;;5002817;28;20047;-75
2022/10/01 13:56:00;;;;;;;1.08;0.30;;;;;;;;;;5027516;28;20063;-74
2022/10/01 13:58:34;;;;;;;1.85;0.47;;;;;;;;;;5026829;28;20052;-77
2022/10/01 14:01:03;;;;;;;0.20;0.20;;;;;;;;;;5027963;28;20084;-77
2022/10/01 14:03:39;;;;;;;0.38;0.30;;;;;;;;;;5025600;28;20049;-76
2022/10/01 14:06:16;;;;;;;0.45;0.25;;;;;;;;;;5007723;28;20053;-77
2022/10/01 14:08:47;;;;;;;0.57;0.43;;;;;;;;;;4997735;28;20517;-74
2022/10/01 14:16:55;;;;;;;0.95;0.30;;;;;;;;;;4998142;28;20050;-77
2022/10/01 14:19:25;;;;;;;0.30;0.20;;;;;;;;;;5002863;28;20054;-76
2022/10/01 14:22:02;;;;;;;0.13;0.13;;;;;;;;;;5004182;28;20053;-78
2022/10/01 14:24:33;;;;;;;0.30;0.30;;;;;;;;;;4994341;28;20733;-75
2022/10/01 14:27:05;;;;;;;0.10;0.10;;;;;;;;;;4991963;28;20042;-77
2022/10/01 14:29:43;;;;;;;0.60;0.40;;;;;;;;;;4999690;28;20049;-76
2022/10/01 14:32:17;;;;;;;0.00;0.00;;;;;;;;;;5008383;28;20049;-76
2022/10/01 14:34:52;;;;;;;0.60;0.17;;;;;;;;;;4992079;28;20054;-78
2022/10/01 14:37:23;;;;;;;0.10;0.10;;;;;;;;;;5005740;28;20050;-78
2022/10/01 14:40:01;;;;;;;0.28;0.17;;;;;;;;;;5004045;28;20054;-78
2022/10/01 14:42:29;;;;;;;0.10;0.10;;;;;;;;;;4999366;28;20057;-78
2022/10/01 14:44:58;;;;;;;0.20;0.20;;;;;;;;;;5006419;28;20068;-78
2022/10/01 14:47:33;;;;;;;0.63;0.63;;;;;;;;;;5018238;28;20565;-72
2022/10/01 14:50:09;;;;;;;0.30;0.30;;;;;;;;;;5021287;28;20111;-77
2022/10/01 14:52:40;;;;;;;0.47;0.47;;;;;;;;;;4961296;28;20205;-85
2022/10/01 14:55:12;;;;;;;0.10;0.10;;;;;;;;;;4960615;28;20060;-77
2022/10/01 14:57:42;;;;;;;0.13;0.13;;;;;;;;;;5022809;28;20051;-79
2022/10/01 15:00:15;;;;;;;0.10;0.10;;;;;;;;;;5021182;28;20057;-78
2022/10/01 15:02:47;;;;;;;0.10;0.10;;;;;;;;;;5016265;28;20543;-75
2022/10/01 15:05:21;;;;;;;0.80;0.57;;;;;;;;;;5018827;28;20045;-75
2022/10/01 15:07:51;;;;;;;0.28;0.20;;;;;;;;;;5018112;28;20053;-79
2022/10/01 15:10:20;;;;;;;0.65;0.38;;;;;;;;;;5023521;28;20045;-79
2022/10/01 15:12:50;;;;;;;0.32;0.32;;;;;;;;;;5025960;28;20053;-79
2022/10/01 15:15:20;;;;;;;0.25;0.20;;;;;;;;;;5020279;28;20406;-80
2022/10/01 15:17:48;;;;;;;0.55;0.30;;;;;;;;;;5021621;28;20049;-76
2022/10/01 15:20:17;;;;;;;0.90;0.85;;;;;;;;;;5016936;28;20049;-76